createdAt,value
2018-11-03T00:00:37.551Z,29.20
2018-11-03T00:03:08.917Z,29.80
2018-11-03T00:05:40.286Z,29.23
2018-11-03T00:08:11.531Z,28.43
2018-11-03T00:10:42.523Z,27.53
2018-11-03T00:13:14.047Z,28.37
2018-11-03T00:15:45.677Z,26.57
2018-11-03T00:18:16.917Z,26.63
2018-11-03T00:20:48.084Z,26.90
2018-11-03T00:23:19.704Z,27.37
2018-11-03T00:28:25.239Z,28.07
2018-11-03T00:30:57.006Z,27.53
2018-11-03T00:33:28.965Z,26.73
2018-11-03T00:36:00.916Z,25.30
2018-11-03T00:38:33.496Z,26.43
2018-11-03T00:41:05.470Z,26.70
2018-11-03T00:43:37.928Z,27.57
2018-11-03T00:46:10.344Z,26.07
2018-11-03T00:48:43.427Z,27.27
2018-11-03T00:51:15.397Z,28.07
2018-11-03T00:53:47.330Z,26.03
2018-11-03T00:56:19.370Z,27.33
2018-11-03T00:58:51.329Z,26.70
2018-11-03T01:01:24.041Z,27.97
2018-11-03T01:03:56.832Z,26.27
2018-11-03T01:06:28.701Z,28.40
2018-11-03T01:09:00.784Z,27.13
2018-11-03T01:11:33.025Z,27.63
2018-11-03T01:14:05.307Z,25.10
2018-11-03T01:16:38.658Z,27.07
2018-11-03T01:19:11.457Z,27.20
2018-11-03T01:21:43.745Z,27.63
2018-11-03T01:24:16.388Z,25.60
2018-11-03T01:26:48.324Z,26.33
2018-11-03T01:29:20.142Z,25.77
2018-11-03T01:31:52.013Z,24.00
2018-11-03T01:34:24.045Z,25.87
2018-11-03T01:36:55.777Z,24.30
2018-11-03T01:39:28.441Z,25.43
2018-11-03T01:42:01.352Z,26.63
2018-11-03T01:44:33.646Z,26.37
2018-11-03T01:47:05.949Z,26.90
2018-11-03T01:49:37.882Z,25.63
2018-11-03T01:52:09.668Z,27.50
2018-11-03T01:54:41.958Z,27.20
2018-11-03T01:57:14.006Z,25.60
2018-11-03T01:59:45.886Z,24.93
2018-11-03T02:02:17.453Z,25.37
2018-11-03T02:04:50.192Z,26.43
2018-11-03T02:07:22.270Z,24.47
2018-11-03T02:09:55.145Z,26.07
2018-11-03T02:12:27.363Z,25.23
2018-11-03T02:14:59.138Z,26.50
2018-11-03T02:17:33.318Z,26.70
2018-11-03T02:20:05.836Z,25.30
2018-11-03T02:22:38.067Z,26.87
2018-11-03T02:25:10.506Z,25.97
2018-11-03T02:27:42.517Z,27.60
2018-11-03T02:30:14.446Z,27.57
2018-11-03T02:32:46.193Z,27.30
2018-11-03T02:35:19.095Z,26.77
2018-11-03T02:37:53.908Z,25.80
2018-11-03T02:40:26.586Z,26.40
2018-11-03T02:42:59.334Z,26.07
2018-11-03T02:45:31.129Z,26.87
2018-11-03T02:48:03.153Z,27.53
2018-11-03T02:50:35.230Z,25.83
2018-11-03T02:53:07.328Z,26.73
2018-11-03T02:55:39.231Z,26.83
2018-11-03T02:58:11.183Z,28.33
2018-11-03T03:00:43.350Z,28.57
2018-11-03T03:03:15.012Z,27.43
2018-11-03T03:05:47.620Z,27.53
2018-11-03T03:08:19.300Z,26.73
2018-11-03T03:10:51.134Z,27.13
2018-11-03T03:13:22.745Z,28.87
2018-11-03T03:15:55.832Z,28.10
2018-11-03T03:18:27.467Z,29.63
2018-11-03T03:20:59.738Z,29.80
2018-11-03T03:23:31.625Z,29.17
2018-11-03T03:26:03.844Z,28.80
2018-11-03T03:28:35.835Z,30.00
2018-11-03T03:31:07.942Z,29.27
2018-11-03T03:33:40.041Z,30.13
2018-11-03T03:36:12.063Z,29.03
2018-11-03T03:38:44.285Z,30.27
2018-11-03T03:41:17.240Z,27.37
2018-11-03T03:43:49.141Z,27.57
2018-11-03T03:46:20.956Z,28.73
2018-11-03T03:48:52.820Z,27.83
2018-11-03T03:51:24.958Z,28.93
2018-11-03T03:53:57.888Z,28.37
2018-11-03T03:56:30.545Z,28.70
2018-11-03T03:59:03.729Z,29.00
2018-11-03T04:01:35.699Z,30.27
2018-11-03T04:04:09.152Z,29.03
2018-11-03T04:06:41.978Z,28.23
2018-11-03T04:09:14.077Z,29.33
2018-11-03T04:11:45.887Z,28.97
2018-11-03T04:14:17.859Z,29.20
2018-11-03T04:16:50.496Z,29.67
2018-11-03T04:19:23.253Z,29.57
2018-11-03T04:21:55.130Z,31.20
2018-11-03T04:24:28.242Z,32.17
2018-11-03T04:27:00.304Z,35.47
2018-11-03T04:29:32.237Z,32.30
2018-11-03T04:32:04.531Z,31.80
2018-11-03T04:34:36.501Z,34.50
2018-11-03T04:37:08.375Z,31.90
2018-11-03T04:39:40.792Z,30.33
2018-11-03T04:42:13.024Z,28.97
2018-11-03T04:44:45.127Z,29.43
2018-11-03T04:47:17.230Z,29.37
2018-11-03T04:49:49.621Z,28.70
2018-11-03T04:52:21.735Z,30.10
2018-11-03T04:54:53.654Z,30.57
2018-11-03T04:57:25.560Z,29.30
2018-11-03T04:59:57.739Z,30.67
2018-11-03T05:02:29.980Z,31.53
2018-11-03T05:05:01.997Z,30.80
2018-11-03T05:07:34.722Z,31.90
2018-11-03T05:10:08.154Z,31.97
2018-11-03T05:12:39.889Z,30.90
2018-11-03T05:15:11.702Z,31.37
2018-11-03T05:17:43.890Z,32.37
2018-11-03T05:20:15.490Z,31.47
2018-11-03T05:22:47.643Z,31.60
2018-11-03T05:25:19.994Z,31.70
2018-11-03T05:27:52.058Z,31.93
2018-11-03T05:30:24.379Z,31.23
2018-11-03T05:32:56.496Z,31.50
2018-11-03T05:35:28.221Z,31.83
2018-11-03T05:38:00.219Z,30.67
2018-11-03T05:40:32.325Z,33.60
2018-11-03T05:43:04.163Z,31.30
2018-11-03T05:45:37.084Z,31.10
2018-11-03T05:48:09.165Z,31.83
2018-11-03T05:50:41.287Z,32.90
2018-11-03T05:53:13.208Z,34.73
2018-11-03T05:55:45.995Z,35.07
2018-11-03T05:58:18.002Z,38.97
2018-11-03T06:00:50.084Z,40.63
2018-11-03T06:03:24.385Z,39.30
2018-11-03T06:05:57.032Z,36.83
2018-11-03T06:08:28.904Z,32.83
2018-11-03T06:11:01.690Z,36.33
2018-11-03T06:13:33.710Z,34.37
2018-11-03T06:16:05.696Z,34.93
2018-11-03T06:18:37.472Z,33.23
2018-11-03T06:21:09.158Z,35.87
2018-11-03T06:23:42.113Z,33.13
2018-11-03T06:26:14.277Z,32.73
2018-11-03T06:31:47.862Z,32.77
2018-11-03T06:34:19.792Z,32.80
2018-11-03T06:36:52.148Z,34.87
2018-11-03T06:39:24.201Z,34.70
2018-11-03T06:41:56.610Z,31.20
2018-11-03T06:44:29.147Z,33.40
2018-11-03T06:47:01.356Z,31.60
2018-11-03T06:49:34.396Z,32.37
2018-11-03T06:52:06.502Z,33.30
2018-11-03T06:54:38.482Z,31.63
2018-11-03T06:57:11.330Z,33.20
2018-11-03T06:59:43.409Z,32.13
2018-11-03T07:02:15.545Z,33.90
2018-11-03T07:04:47.500Z,34.40
2018-11-03T07:07:19.581Z,34.57
2018-11-03T07:09:52.066Z,32.73
2018-11-03T07:12:24.158Z,31.27
2018-11-03T07:14:56.395Z,31.97
2018-11-03T07:17:28.656Z,30.83
2018-11-03T07:20:00.769Z,33.27
2018-11-03T07:22:33.081Z,32.20
2018-11-03T07:25:05.517Z,32.47
2018-11-03T07:27:37.585Z,31.97
2018-11-03T07:30:12.588Z,33.17
2018-11-03T07:32:44.863Z,33.53
2018-11-03T07:35:17.041Z,32.93
2018-11-03T07:37:49.653Z,32.80
2018-11-03T07:40:21.961Z,32.17
2018-11-03T07:42:54.219Z,32.87
2018-11-03T07:45:27.247Z,30.60
2018-11-03T07:48:00.145Z,32.57
2018-11-03T07:50:32.694Z,33.57
2018-11-03T07:53:04.772Z,31.87
2018-11-03T07:55:36.651Z,33.47
2018-11-03T08:01:32.562Z,31.97
2018-11-03T08:04:05.021Z,32.60
2018-11-03T08:06:37.026Z,33.00
2018-11-03T08:12:17.240Z,33.90
2018-11-03T08:14:49.513Z,30.83
2018-11-03T08:17:21.997Z,31.47
2018-11-03T08:19:54.357Z,29.80
2018-11-03T08:22:26.581Z,31.53
2018-11-03T08:24:58.550Z,29.43
2018-11-03T08:27:31.468Z,30.93
2018-11-03T08:30:03.837Z,29.53
2018-11-03T08:33:39.023Z,29.90
2018-11-03T08:36:12.907Z,30.33
2018-11-03T08:38:45.458Z,29.53
2018-11-03T08:41:17.554Z,28.73
2018-11-03T08:43:49.871Z,29.73
2018-11-03T08:46:23.310Z,30.50
2018-11-03T08:48:55.484Z,30.27
2018-11-03T08:51:27.671Z,29.47
2018-11-03T08:53:59.880Z,29.70
2018-11-03T08:56:32.288Z,28.40
2018-11-03T08:59:05.557Z,29.17
2018-11-03T09:01:38.495Z,29.27
2018-11-03T09:04:10.871Z,28.20
2018-11-03T09:06:42.721Z,28.17
2018-11-03T09:09:14.834Z,27.63
2018-11-03T09:11:47.183Z,27.43
2018-11-03T09:14:19.559Z,27.63
2018-11-03T09:16:51.853Z,28.20
2018-11-03T09:19:24.084Z,27.03
2018-11-03T09:21:56.353Z,27.60
2018-11-03T09:24:28.533Z,24.53
2018-11-03T09:27:00.833Z,25.53
2018-11-03T09:29:32.821Z,23.83
2018-11-03T09:32:04.859Z,25.10
2018-11-03T09:34:37.048Z,24.93
2018-11-03T09:37:09.314Z,23.13
2018-11-03T09:39:41.400Z,23.50
2018-11-03T09:42:13.551Z,21.80
2018-11-03T09:44:46.298Z,22.97
2018-11-03T09:47:18.937Z,21.70
2018-11-03T09:49:51.201Z,19.10
2018-11-03T09:52:23.072Z,20.70
2018-11-03T09:54:55.632Z,19.20
2018-11-03T09:57:28.330Z,19.00
2018-11-03T10:00:00.303Z,20.70
2018-11-03T10:02:32.579Z,19.63
2018-11-03T10:05:04.811Z,18.73
2018-11-03T10:07:38.488Z,16.77
2018-11-03T10:10:16.439Z,17.37
2018-11-03T10:12:48.732Z,16.00
2018-11-03T10:15:20.905Z,15.63
2018-11-03T10:17:54.045Z,16.50
2018-11-03T10:20:26.250Z,15.70
2018-11-03T10:22:58.384Z,16.73
2018-11-03T10:25:30.514Z,15.67
2018-11-03T10:28:02.108Z,17.83
2018-11-03T10:30:34.779Z,17.60
2018-11-03T10:33:07.991Z,16.83
2018-11-03T10:35:40.766Z,17.37
2018-11-03T10:38:12.668Z,18.87
2018-11-03T10:40:45.233Z,17.80
2018-11-03T10:43:17.434Z,18.17
2018-11-03T10:45:49.620Z,17.67
2018-11-03T10:48:21.786Z,15.73
2018-11-03T10:50:54.390Z,15.27
2018-11-03T10:53:26.761Z,14.80
2018-11-03T10:55:59.385Z,14.87
2018-11-03T10:58:31.570Z,14.03
2018-11-03T11:01:08.533Z,14.43
2018-11-03T11:03:45.949Z,14.93
2018-11-03T11:06:22.638Z,14.73
2018-11-03T11:08:59.649Z,12.70
2018-11-03T11:11:36.944Z,13.37
2018-11-03T11:14:09.272Z,13.30
2018-11-03T11:16:41.462Z,13.30
2018-11-03T11:19:14.552Z,13.03
2018-11-03T11:21:46.614Z,12.47
2018-11-03T11:24:18.822Z,12.87
2018-11-03T11:26:50.894Z,12.73
2018-11-03T11:29:23.746Z,12.13
2018-11-03T11:31:56.888Z,12.47
2018-11-03T11:34:29.279Z,11.17
2018-11-03T11:37:01.527Z,10.70
2018-11-03T11:39:33.964Z,10.70
2018-11-03T11:42:06.073Z,11.33
2018-11-03T11:44:38.006Z,12.87
2018-11-03T11:47:10.149Z,11.00
2018-11-03T11:49:42.526Z,11.30
2018-11-03T11:56:17.537Z,10.80
2018-11-03T11:58:50.034Z,10.80
2018-11-03T12:01:22.607Z,11.27
2018-11-03T12:03:54.916Z,10.77
2018-11-03T12:06:26.898Z,10.93
2018-11-03T12:08:59.443Z,10.63
2018-11-03T12:11:31.790Z,9.73
2018-11-03T12:14:04.061Z,10.27
2018-11-03T12:16:36.340Z,10.33
2018-11-03T12:19:09.009Z,10.00
2018-11-03T12:21:41.363Z,9.93
2018-11-03T12:24:13.677Z,9.77
2018-11-03T12:26:45.723Z,8.60
2018-11-03T12:29:17.936Z,4.47
2018-11-03T12:31:49.860Z,4.10
2018-11-03T12:34:21.826Z,4.33
2018-11-03T12:36:53.878Z,4.17
2018-11-03T12:39:26.187Z,4.10
2018-11-03T12:41:59.510Z,3.87
2018-11-03T12:44:32.460Z,4.13
2018-11-03T12:47:05.278Z,3.63
2018-11-03T12:49:37.613Z,3.77
2018-11-03T12:52:10.065Z,3.60
2018-11-03T12:54:42.252Z,3.30
2018-11-03T12:57:14.462Z,3.40
2018-11-03T12:59:46.736Z,3.40
2018-11-03T13:02:19.871Z,3.90
2018-11-03T13:04:52.610Z,3.90
2018-11-03T13:07:24.967Z,3.93
2018-11-03T13:09:57.106Z,4.00
2018-11-03T13:12:29.361Z,5.03
2018-11-03T13:15:01.488Z,5.13
2018-11-03T13:17:33.495Z,4.50
2018-11-03T13:20:06.684Z,4.03
2018-11-03T13:22:39.101Z,4.77
2018-11-03T13:25:11.837Z,4.20
2018-11-03T13:27:44.110Z,4.80
2018-11-03T13:30:16.908Z,5.30
2018-11-03T13:32:50.390Z,4.90
2018-11-03T13:35:22.709Z,4.70
2018-11-03T13:37:54.783Z,4.83
2018-11-03T13:40:27.512Z,4.53
2018-11-03T13:43:00.452Z,5.00
2018-11-03T13:45:32.398Z,5.27
2018-11-03T13:48:04.410Z,6.10
2018-11-03T13:50:36.903Z,5.43
2018-11-03T13:53:09.188Z,6.13
2018-11-03T13:55:41.657Z,5.90
2018-11-03T13:58:14.247Z,5.93
2018-11-03T14:00:46.273Z,6.67
2018-11-03T14:03:18.451Z,6.80
2018-11-03T14:05:53.529Z,6.40
2018-11-03T14:08:27.794Z,5.87
2018-11-03T14:11:01.844Z,5.87
2018-11-03T14:13:33.988Z,6.43
2018-11-03T14:16:05.719Z,8.90
2018-11-03T14:18:37.915Z,6.93
2018-11-03T14:21:10.142Z,6.33
2018-11-03T14:23:42.386Z,7.77
2018-11-03T14:26:15.647Z,8.23
2018-11-03T14:28:47.738Z,11.03
2018-11-03T14:31:19.688Z,9.33
2018-11-03T14:33:51.895Z,10.00
2018-11-03T14:36:24.518Z,11.07
2018-11-03T14:38:56.707Z,9.23
2018-11-03T14:41:28.923Z,10.43
2018-11-03T14:44:01.160Z,8.77
2018-11-03T14:46:33.404Z,7.80
2018-11-03T14:49:05.922Z,8.27
2018-11-03T14:51:38.109Z,9.23
2018-11-03T14:54:12.049Z,9.83
2018-11-03T14:56:44.337Z,9.30
2018-11-03T14:59:16.277Z,9.60
2018-11-03T15:01:49.155Z,9.60
2018-11-03T15:04:22.188Z,10.57
2018-11-03T15:06:54.239Z,9.47
2018-11-03T15:09:26.213Z,10.73
2018-11-03T15:11:58.276Z,10.60
2018-11-03T15:14:30.305Z,16.13
2018-11-03T15:17:02.645Z,11.40
2018-11-03T15:19:34.761Z,12.27
2018-11-03T15:22:07.555Z,12.67
2018-11-03T15:24:39.867Z,12.67
2018-11-03T15:27:12.366Z,12.33
2018-11-03T15:29:45.190Z,13.23
2018-11-03T15:32:18.434Z,13.73
2018-11-03T15:34:50.913Z,15.27
2018-11-03T15:37:23.186Z,16.17
2018-11-03T15:39:55.303Z,16.23
2018-11-03T15:42:27.547Z,16.90
2018-11-03T15:44:59.543Z,17.03
2018-11-03T15:47:31.727Z,16.63
2018-11-03T15:50:03.880Z,17.00
2018-11-03T15:52:36.441Z,16.40
2018-11-03T15:55:08.881Z,16.97
2018-11-03T15:57:40.857Z,15.57
2018-11-03T16:00:17.493Z,16.07
2018-11-03T16:02:50.111Z,16.27
2018-11-03T16:05:22.232Z,15.70
2018-11-03T16:07:54.799Z,16.00
2018-11-03T16:10:27.329Z,16.03
2018-11-03T16:12:59.418Z,19.10
2018-11-03T16:15:31.544Z,17.23
2018-11-03T16:18:03.704Z,16.70
2018-11-03T16:20:35.700Z,16.20
2018-11-03T16:23:08.025Z,17.30
2018-11-03T16:25:40.077Z,16.80
2018-11-03T16:28:12.527Z,17.80
2018-11-03T16:30:44.798Z,15.67
2018-11-03T16:33:17.207Z,18.30
2018-11-03T16:35:49.624Z,17.43
2018-11-03T16:38:21.799Z,17.67
2018-11-03T16:40:55.299Z,17.73
2018-11-03T16:43:27.899Z,18.60
2018-11-03T16:46:00.550Z,23.90
2018-11-03T16:48:33.712Z,22.60
2018-11-03T16:51:06.808Z,21.97
2018-11-03T16:53:39.192Z,20.83
2018-11-03T16:56:11.620Z,25.03
2018-11-03T16:58:44.380Z,23.80
2018-11-03T17:01:16.469Z,24.43
2018-11-03T17:03:48.867Z,24.73
2018-11-03T17:06:21.272Z,21.60
2018-11-03T17:08:54.167Z,24.33
2018-11-03T17:11:26.501Z,22.43
2018-11-03T17:13:59.671Z,26.17
2018-11-03T17:16:32.296Z,26.17
2018-11-03T17:19:04.724Z,25.30
2018-11-03T17:21:37.060Z,27.33
2018-11-03T17:24:11.417Z,26.67
2018-11-03T17:26:43.627Z,27.30
2018-11-03T17:29:16.472Z,27.63
2018-11-03T17:31:48.800Z,28.93
2018-11-03T17:34:20.902Z,30.10
2018-11-03T17:36:53.480Z,29.17
2018-11-03T17:39:27.773Z,29.30
2018-11-03T17:41:59.625Z,28.90
2018-11-03T17:44:32.112Z,32.63
2018-11-03T17:47:04.321Z,31.70
2018-11-03T17:49:38.073Z,32.83
2018-11-03T17:52:10.225Z,33.93
2018-11-03T17:54:42.776Z,34.63
2018-11-03T17:57:19.426Z,34.67
2018-11-03T17:59:51.845Z,35.30
2018-11-03T18:02:25.050Z,36.27
2018-11-03T18:04:57.661Z,37.03
2018-11-03T18:07:31.312Z,36.30
2018-11-03T18:10:03.719Z,36.50
2018-11-03T18:12:36.175Z,37.33
2018-11-03T18:15:10.251Z,39.97
2018-11-03T18:17:43.161Z,37.97
2018-11-03T18:20:15.951Z,39.50
2018-11-03T18:22:48.347Z,40.37
2018-11-03T18:25:20.786Z,41.13
2018-11-03T18:27:53.775Z,39.63
2018-11-03T18:30:25.990Z,40.20
2018-11-03T18:32:58.224Z,40.73
2018-11-03T18:35:30.571Z,41.47
2018-11-03T18:38:03.110Z,41.43
2018-11-03T18:40:35.534Z,39.40
2018-11-03T18:43:08.094Z,41.53
2018-11-03T18:45:41.225Z,40.87
2018-11-03T18:48:13.448Z,41.13
2018-11-03T18:50:46.538Z,40.47
2018-11-03T18:53:19.880Z,40.43
2018-11-03T18:55:52.930Z,43.50
2018-11-03T18:58:26.590Z,40.57
2018-11-03T19:01:00.522Z,41.10
2018-11-03T19:03:32.662Z,39.50
2018-11-03T19:06:05.696Z,39.17
2018-11-03T19:08:38.158Z,39.27
2018-11-03T19:11:12.625Z,38.57
2018-11-03T19:13:44.848Z,40.20
2018-11-03T19:16:17.778Z,37.00
2018-11-03T19:18:50.120Z,39.07
2018-11-03T19:21:22.548Z,37.00
2018-11-03T19:23:54.882Z,38.67
2018-11-03T19:26:27.087Z,36.20
2018-11-03T19:28:59.968Z,38.20
2018-11-03T19:31:32.212Z,36.83
2018-11-03T19:34:04.444Z,37.60
2018-11-03T19:36:37.126Z,37.53
2018-11-03T19:39:10.697Z,36.77
2018-11-03T19:41:43.020Z,46.50
2018-11-03T19:44:16.299Z,39.23
2018-11-03T19:46:48.672Z,37.80
2018-11-03T19:49:21.555Z,39.47
2018-11-03T19:51:53.443Z,38.03
2018-11-03T19:54:25.631Z,37.73
2018-11-03T19:56:59.810Z,37.80
2018-11-03T19:59:31.991Z,37.57
2018-11-03T20:02:04.186Z,37.30
2018-11-03T20:04:36.058Z,38.20
2018-11-03T20:07:08.336Z,39.10
2018-11-03T20:09:40.929Z,39.00
2018-11-03T20:12:13.199Z,40.83
2018-11-03T20:14:45.449Z,40.13
2018-11-03T20:17:18.899Z,39.63
2018-11-03T20:19:51.262Z,40.43
2018-11-03T20:22:23.216Z,38.90
2018-11-03T20:24:56.341Z,39.20
2018-11-03T20:27:29.230Z,39.77
2018-11-03T20:30:01.700Z,40.87
2018-11-03T20:32:33.794Z,46.20
2018-11-03T20:35:06.395Z,41.37
2018-11-03T20:37:39.045Z,40.70
2018-11-03T20:40:12.956Z,38.30
2018-11-03T20:42:45.270Z,38.23
2018-11-03T20:45:17.292Z,38.63
2018-11-03T20:47:49.980Z,38.17
2018-11-03T20:50:22.508Z,36.23
2018-11-03T20:52:55.382Z,37.10
2018-11-03T20:55:27.828Z,34.37
2018-11-03T20:57:59.910Z,36.07
2018-11-03T21:00:32.191Z,34.43
2018-11-03T21:03:04.815Z,38.77
2018-11-03T21:05:36.968Z,37.47
2018-11-03T21:08:09.466Z,36.50
2018-11-03T21:10:41.531Z,37.93
2018-11-03T21:13:13.533Z,35.43
2018-11-03T21:15:45.770Z,35.80
2018-11-03T21:18:17.811Z,36.13
2018-11-03T21:20:50.017Z,34.47
2018-11-03T21:23:22.626Z,33.20
2018-11-03T21:25:55.185Z,35.93
2018-11-03T21:28:27.412Z,34.10
2018-11-03T21:30:59.546Z,33.60
2018-11-03T21:33:31.516Z,37.27
2018-11-03T21:36:03.780Z,34.33
2018-11-03T21:38:36.026Z,30.77
2018-11-03T21:41:08.710Z,36.83
2018-11-03T21:43:42.066Z,33.73
2018-11-03T21:46:14.467Z,32.73
2018-11-03T21:48:46.591Z,34.37
2018-11-03T21:51:18.834Z,33.67
2018-11-03T21:53:50.756Z,33.27
2018-11-03T21:56:22.797Z,36.77
2018-11-03T21:58:55.045Z,35.00
2018-11-03T22:01:28.298Z,36.50
2018-11-03T22:04:00.509Z,35.20
2018-11-03T22:06:32.777Z,35.67
2018-11-03T22:09:07.860Z,36.60
2018-11-03T22:11:40.252Z,35.27
2018-11-03T22:14:12.177Z,35.83
2018-11-03T22:16:44.562Z,33.80
2018-11-03T22:19:17.414Z,34.70
2018-11-03T22:21:49.654Z,34.47
2018-11-03T22:24:21.994Z,35.87
2018-11-03T22:26:54.400Z,35.40
2018-11-03T22:29:26.532Z,33.30
2018-11-03T22:31:59.441Z,34.10
2018-11-03T22:34:31.531Z,32.60
2018-11-03T22:37:03.831Z,30.87
2018-11-03T22:39:36.157Z,33.27
2018-11-03T22:42:08.068Z,33.47
2018-11-03T22:44:40.186Z,34.67
2018-11-03T22:47:12.765Z,33.27
2018-11-03T22:49:44.758Z,33.30
2018-11-03T22:52:16.732Z,33.30
2018-11-03T22:54:48.770Z,33.93
2018-11-03T22:57:20.799Z,36.23
2018-11-03T22:59:52.725Z,33.83
2018-11-03T23:02:25.597Z,35.13
2018-11-03T23:04:58.040Z,33.57
2018-11-03T23:07:30.077Z,35.60
2018-11-03T23:10:02.017Z,33.47
2018-11-03T23:12:33.989Z,34.53
2018-11-03T23:15:06.485Z,34.67
2018-11-03T23:17:38.532Z,33.03
2018-11-03T23:20:13.578Z,33.67
2018-11-03T23:22:45.662Z,32.47
2018-11-03T23:25:17.503Z,30.47
2018-11-03T23:27:49.681Z,30.30
2018-11-03T23:30:21.652Z,30.97
2018-11-03T23:32:53.485Z,29.20
2018-11-03T23:35:25.368Z,28.93
2018-11-03T23:37:57.568Z,30.53
2018-11-03T23:40:29.658Z,31.90
2018-11-03T23:43:01.389Z,30.83
2018-11-03T23:45:33.357Z,30.67
2018-11-03T23:48:05.345Z,31.80
2018-11-03T23:50:37.134Z,30.10
2018-11-03T23:53:09.418Z,30.70
2018-11-03T23:55:41.508Z,28.77
2018-11-03T23:58:13.310Z,28.87
